• Join FlightAware (Why Join?)
  • Login
  • US Flag 
12:46PM EDT


 

Airport Tracker/Info


-or-


 

Live Flight TrackerFlight Track Log ✈ N606FT ✈ 31-Aug-2013 ✈ KFMY - KCOI

Flight Track Log - Related Links

Times and Time Zones

All times are in EDT time to prevent confusion due to time zone crossing. See the N606FT flight status page for this flight to view local times or setup timezone preferences in your user account.

Time Position Orientation Groundspeed Altitude Reporting Facility
EDT Latitude Longitude Course Direction KTS MPH feet Rate Location/Type
09:20PM 26.7417 -81.8761 31° Northeast 116 133 2,600  Level Miami Center
09:21PM 27.0640 -81.5472 31° Northeast  Level Estimated
09:21PM 26.7669 -81.8725 North 111 128 2,600  Level Miami Center
09:22PM 27.1030 -81.5212 31° Northeast  Level Estimated
09:22PM 26.8006 -81.8669 North 117 135 2,700  Level Miami Center
09:23PM 27.1421 -81.4952 31° Northeast  Level Estimated
09:23PM 26.8242 -81.8492 34° Northeast 128 147 2,600  Level Miami Center
09:24PM 27.1811 -81.4692 31° Northeast  Level Estimated
09:24PM 26.8558 -81.8342 23° Northeast 116 133 2,600  Level Miami Center
09:25PM 27.2201 -81.4432 31° Northeast  Level Estimated
09:25PM 26.8814 -81.8169 31° Northeast 111 128 2,600  Level Miami Center
09:26PM 26.9114 -81.7994 27° Northeast 111 128 2,600  Level Miami Center
09:27PM 26.9389 -81.7867 23° Northeast 111 128 2,600  Level Miami Center
09:28PM 26.9667 -81.7714 26° Northeast 111 128 2,600  Level Miami Center
09:29PM 26.9922 -81.7539 31° Northeast 111 128 2,600  Level Miami Center
09:30PM 27.0242 -81.7367 26° Northeast 111 128 2,600  Level Miami Center
09:31PM 27.0583 -81.7147 30° Northeast 111 128 2,600  Level Miami Center
09:32PM 27.0839 -81.6972 31° Northeast 111 128 2,600 -60 Level Miami Center
09:33PM 27.1136 -81.6775 31° Northeast 111 128 2,500 -60 Descending Miami Center
09:34PM 27.1392 -81.6622 28° Northeast 111 128 2,500  Level Miami Center
09:35PM 27.1606 -81.6467 33° Northeast 106 122 2,500  Level Miami Center
09:36PM 27.1842 -81.6289 34° Northeast 100 115 2,500  Level Miami Center
09:37PM 27.2119 -81.6139 26° Northeast 100 115 2,500  Level Miami Center
09:38PM 27.2375 -81.5986 28° Northeast 100 115 2,500  Level Miami Center
09:39PM 27.2650 -81.5833 26° Northeast 100 115 2,500  Level Miami Center
09:40PM 27.2906 -81.5703 24° Northeast 100 115 2,500  Level Miami Center
09:41PM 27.3200 -81.5597 18° North 100 115 2,500  Level Miami Center
09:42PM 27.3475 -81.5492 19° North 100 115 2,500  Level Miami Center
09:43PM 27.3728 -81.5411 16° North 100 115 2,500  Level Miami Center
09:44PM 27.4044 -81.5328 13° North 100 115 2,500  Level Miami Center
09:45PM 27.4297 -81.5222 20° North 100 115 2,500  Level Miami Center
09:46PM 27.4533 -81.5044 34° Northeast 100 115 2,600  Climbing Miami Center
09:47PM 27.4769 -81.4819 40° Northeast 100 115 2,600 -60 Level Miami Center
09:48PM 27.5006 -81.4619 37° Northeast 105 121 2,500 -60 Descending Miami Center
09:49PM 27.5264 -81.4419 34° Northeast 105 121 2,500  Level Miami Center
09:50PM 27.5478 -81.4217 40° Northeast 105 121 2,500 -60 Level Miami Center
09:51PM 27.5714 -81.4017 37° Northeast 105 121 2,400  Descending Miami Center
09:52PM 27.5953 -81.3767 43° Northeast 105 121 2,500  Climbing Miami Center
09:53PM 27.6189 -81.3567 37° Northeast 105 121 2,500  Level Miami Center
09:54PM 27.6444 -81.3389 32° Northeast 105 121 2,500  Level Miami Center
09:55PM 27.6658 -81.3186 40° Northeast 105 121 2,500  Level Miami Center
09:56PM 27.6894 -81.3008 34° Northeast 105 121 2,500  Level Miami Center
09:57PM 27.7150 -81.2783 38° Northeast 105 121 2,500  Level Miami Center
09:58PM 27.7386 -81.2558 40° Northeast 105 121 2,500  Level Miami Center
10:00PM 27.7833 -81.2167 38° Northeast 103 119 2,600  Climbing Orlando TRACON
10:01PM 27.8000 -81.2000 41° Northeast 102 117 2,600  Level Orlando TRACON
10:02PM 27.8167 -81.1833 41° Northeast 103 119 2,600  Level Orlando TRACON
10:02PM 27.8333 -81.1667 41° Northeast 103 119 2,600  Level Orlando TRACON
10:04PM 27.8500 -81.1333 61° Northeast 104 120 2,700  Climbing Orlando TRACON
10:04PM 27.8833 -81.1167 24° Northeast 103 119 2,700  Level Orlando TRACON
10:05PM 27.9000 -81.1000 41° Northeast 105 121 2,700 -60 Level Orlando TRACON
10:06PM 27.9167 -81.0667 60° Northeast 110 127 2,600 -120 Descending Orlando TRACON
10:07PM 27.9500 -81.0500 24° Northeast 117 135 2,500 -60 Descending Orlando TRACON
10:08PM 27.9667 -81.0167 60° Northeast 113 130 2,500 -60 Level Orlando TRACON
10:09PM 27.9833 -81.0000 41° Northeast 111 128 2,400  Descending Orlando TRACON
10:10PM 28.0167 -80.9833 24° Northeast 102 117 2,500 60 Climbing Orlando TRACON
10:11PM 28.0333 -80.9667 41° Northeast 103 119 2,600 60 Climbing Orlando TRACON